sensor_id;sensor_type;location;lat;lon;timestamp;P1;durP1;ratioP1;P2;durP2;ratioP2
72584;SDS011;73873;40.084;32.908;2023-11-21T00:02:21;11.80;;;6.80;;
72584;SDS011;73873;40.084;32.908;2023-11-21T00:04:48;12.50;;;7.05;;
72584;SDS011;73873;40.084;32.908;2023-11-21T00:07:15;14.88;;;7.50;;
72584;SDS011;73873;40.084;32.908;2023-11-21T00:09:42;11.37;;;6.87;;
72584;SDS011;73873;40.084;32.908;2023-11-21T00:12:09;14.15;;;7.65;;
72584;SDS011;73873;40.084;32.908;2023-11-21T00:14:39;13.75;;;6.90;;
72584;SDS011;73873;40.084;32.908;2023-11-21T00:17:06;12.65;;;6.70;;
72584;SDS011;73873;40.084;32.908;2023-11-21T00:19:33;14.63;;;7.68;;
72584;SDS011;73873;40.084;32.908;2023-11-21T00:22:00;13.33;;;7.67;;
72584;SDS011;73873;40.084;32.908;2023-11-21T00:24:27;16.00;;;8.00;;
72584;SDS011;73873;40.084;32.908;2023-11-21T00:26:54;13.40;;;7.55;;
72584;SDS011;73873;40.084;32.908;2023-11-21T00:29:21;12.90;;;7.38;;
72584;SDS011;73873;40.084;32.908;2023-11-21T00:31:48;13.40;;;7.68;;
72584;SDS011;73873;40.084;32.908;2023-11-21T00:34:15;14.97;;;7.87;;
72584;SDS011;73873;40.084;32.908;2023-11-21T00:36:42;14.30;;;8.32;;
72584;SDS011;73873;40.084;32.908;2023-11-21T00:39:09;15.68;;;7.82;;
72584;SDS011;73873;40.084;32.908;2023-11-21T00:41:36;16.30;;;8.73;;
72584;SDS011;73873;40.084;32.908;2023-11-21T00:44:03;15.52;;;8.70;;
72584;SDS011;73873;40.084;32.908;2023-11-21T00:46:30;16.73;;;9.20;;
72584;SDS011;73873;40.084;32.908;2023-11-21T00:48:57;17.92;;;9.85;;
72584;SDS011;73873;40.084;32.908;2023-11-21T00:51:24;18.10;;;10.00;;
72584;SDS011;73873;40.084;32.908;2023-11-21T00:53:51;17.40;;;9.30;;
72584;SDS011;73873;40.084;32.908;2023-11-21T00:56:18;18.52;;;9.73;;
72584;SDS011;73873;40.084;32.908;2023-11-21T00:58:45;17.10;;;9.33;;
72584;SDS011;73873;40.084;32.908;2023-11-21T01:01:12;17.30;;;8.82;;
72584;SDS011;73873;40.084;32.908;2023-11-21T01:03:39;15.02;;;8.45;;
72584;SDS011;73873;40.084;32.908;2023-11-21T01:06:06;13.82;;;7.60;;
72584;SDS011;73873;40.084;32.908;2023-11-21T01:08:33;17.95;;;8.68;;
72584;SDS011;73873;40.084;32.908;2023-11-21T01:11:00;16.37;;;9.00;;
72584;SDS011;73873;40.084;32.908;2023-11-21T01:13:27;14.30;;;7.63;;
72584;SDS011;73873;40.084;32.908;2023-11-21T01:15:54;18.17;;;8.57;;
72584;SDS011;73873;40.084;32.908;2023-11-21T01:18:22;18.77;;;9.85;;
72584;SDS011;73873;40.084;32.908;2023-11-21T01:20:49;22.58;;;11.70;;
72584;SDS011;73873;40.084;32.908;2023-11-21T01:23:16;23.93;;;12.47;;
72584;SDS011;73873;40.084;32.908;2023-11-21T01:25:43;24.05;;;12.52;;
72584;SDS011;73873;40.084;32.908;2023-11-21T01:28:10;26.00;;;12.60;;
72584;SDS011;73873;40.084;32.908;2023-11-21T01:30:37;26.70;;;12.90;;
72584;SDS011;73873;40.084;32.908;2023-11-21T01:33:04;25.38;;;12.27;;
72584;SDS011;73873;40.084;32.908;2023-11-21T01:35:31;25.87;;;12.50;;
72584;SDS011;73873;40.084;32.908;2023-11-21T01:37:57;26.10;;;12.30;;
72584;SDS011;73873;40.084;32.908;2023-11-21T01:40:24;24.48;;;11.88;;
72584;SDS011;73873;40.084;32.908;2023-11-21T01:42:52;23.02;;;11.25;;
72584;SDS011;73873;40.084;32.908;2023-11-21T01:45:20;20.98;;;10.80;;
72584;SDS011;73873;40.084;32.908;2023-11-21T01:47:46;21.13;;;10.50;;
72584;SDS011;73873;40.084;32.908;2023-11-21T01:50:15;21.30;;;11.00;;
72584;SDS011;73873;40.084;32.908;2023-11-21T01:52:46;21.25;;;10.70;;
72584;SDS011;73873;40.084;32.908;2023-11-21T01:55:14;19.88;;;10.55;;
72584;SDS011;73873;40.084;32.908;2023-11-21T01:57:56;25.98;;;12.68;;
72584;SDS011;73873;40.084;32.908;2023-11-21T02:00:24;26.50;;;13.10;;
72584;SDS011;73873;40.084;32.908;2023-11-21T02:02:51;26.55;;;13.82;;
72584;SDS011;73873;40.084;32.908;2023-11-21T02:05:18;30.35;;;14.52;;
72584;SDS011;73873;40.084;32.908;2023-11-21T02:07:46;26.92;;;13.35;;
72584;SDS011;73873;40.084;32.908;2023-11-21T02:10:14;27.10;;;13.90;;
72584;SDS011;73873;40.084;32.908;2023-11-21T02:12:42;28.03;;;13.93;;
72584;SDS011;73873;40.084;32.908;2023-11-21T02:15:12;27.02;;;13.30;;
72584;SDS011;73873;40.084;32.908;2023-11-21T02:17:43;26.25;;;13.23;;
72584;SDS011;73873;40.084;32.908;2023-11-21T02:20:10;25.55;;;12.55;;
72584;SDS011;73873;40.084;32.908;2023-11-21T02:22:38;23.13;;;12.32;;
72584;SDS011;73873;40.084;32.908;2023-11-21T02:25:07;22.67;;;10.43;;
72584;SDS011;73873;40.084;32.908;2023-11-21T02:27:34;20.77;;;10.10;;
72584;SDS011;73873;40.084;32.908;2023-11-21T02:30:01;20.02;;;10.00;;
72584;SDS011;73873;40.084;32.908;2023-11-21T02:32:28;21.92;;;10.88;;
72584;SDS011;73873;40.084;32.908;2023-11-21T02:34:55;21.67;;;10.43;;
72584;SDS011;73873;40.084;32.908;2023-11-21T02:37:22;22.37;;;11.20;;
72584;SDS011;73873;40.084;32.908;2023-11-21T02:39:49;23.73;;;11.85;;
72584;SDS011;73873;40.084;32.908;2023-11-21T02:42:16;22.67;;;12.27;;
72584;SDS011;73873;40.084;32.908;2023-11-21T02:44:43;24.30;;;11.93;;
72584;SDS011;73873;40.084;32.908;2023-11-21T02:47:10;25.48;;;12.20;;
72584;SDS011;73873;40.084;32.908;2023-11-21T02:49:37;26.33;;;12.10;;
72584;SDS011;73873;40.084;32.908;2023-11-21T02:52:04;22.50;;;11.68;;
72584;SDS011;73873;40.084;32.908;2023-11-21T02:54:31;23.05;;;11.45;;
72584;SDS011;73873;40.084;32.908;2023-11-21T02:56:58;23.23;;;12.05;;
72584;SDS011;73873;40.084;32.908;2023-11-21T02:59:25;21.17;;;10.82;;
72584;SDS011;73873;40.084;32.908;2023-11-21T03:01:52;21.83;;;11.00;;
72584;SDS011;73873;40.084;32.908;2023-11-21T03:04:19;21.80;;;11.00;;
72584;SDS011;73873;40.084;32.908;2023-11-21T03:06:46;22.55;;;11.00;;
72584;SDS011;73873;40.084;32.908;2023-11-21T03:09:13;19.08;;;9.70;;
72584;SDS011;73873;40.084;32.908;2023-11-21T03:11:39;20.67;;;11.02;;
72584;SDS011;73873;40.084;32.908;2023-11-21T03:14:06;19.97;;;10.43;;
72584;SDS011;73873;40.084;32.908;2023-11-21T03:16:33;20.98;;;10.52;;
72584;SDS011;73873;40.084;32.908;2023-11-21T03:19:00;23.45;;;11.93;;
72584;SDS011;73873;40.084;32.908;2023-11-21T03:21:27;19.65;;;10.63;;
72584;SDS011;73873;40.084;32.908;2023-11-21T03:23:54;18.55;;;10.18;;
72584;SDS011;73873;40.084;32.908;2023-11-21T03:26:21;19.77;;;10.83;;
72584;SDS011;73873;40.084;32.908;2023-11-21T03:28:48;20.90;;;10.65;;
72584;SDS011;73873;40.084;32.908;2023-11-21T03:31:15;21.25;;;10.48;;
72584;SDS011;73873;40.084;32.908;2023-11-21T03:33:42;19.95;;;10.10;;
72584;SDS011;73873;40.084;32.908;2023-11-21T03:36:09;21.80;;;11.00;;
72584;SDS011;73873;40.084;32.908;2023-11-21T03:38:36;25.63;;;12.13;;
72584;SDS011;73873;40.084;32.908;2023-11-21T03:41:04;31.77;;;13.38;;
72584;SDS011;73873;40.084;32.908;2023-11-21T03:43:31;33.95;;;14.20;;
72584;SDS011;73873;40.084;32.908;2023-11-21T03:45:58;32.28;;;14.15;;
72584;SDS011;73873;40.084;32.908;2023-11-21T03:48:25;28.27;;;13.70;;
72584;SDS011;73873;40.084;32.908;2023-11-21T03:50:52;27.53;;;12.83;;
72584;SDS011;73873;40.084;32.908;2023-11-21T03:53:19;27.67;;;13.00;;
72584;SDS011;73873;40.084;32.908;2023-11-21T03:55:46;26.45;;;12.63;;
72584;SDS011;73873;40.084;32.908;2023-11-21T03:58:13;26.45;;;12.43;;
72584;SDS011;73873;40.084;32.908;2023-11-21T04:00:40;27.42;;;12.82;;
72584;SDS011;73873;40.084;32.908;2023-11-21T04:03:07;27.13;;;12.37;;
72584;SDS011;73873;40.084;32.908;2023-11-21T04:05:34;26.38;;;13.00;;
72584;SDS011;73873;40.084;32.908;2023-11-21T04:08:00;29.80;;;13.10;;
72584;SDS011;73873;40.084;32.908;2023-11-21T04:10:27;26.38;;;12.90;;
72584;SDS011;73873;40.084;32.908;2023-11-21T04:12:54;30.17;;;13.95;;
72584;SDS011;73873;40.084;32.908;2023-11-21T04:15:21;28.33;;;13.60;;
72584;SDS011;73873;40.084;32.908;2023-11-21T04:17:48;32.05;;;14.73;;
72584;SDS011;73873;40.084;32.908;2023-11-21T04:20:15;29.13;;;13.77;;
72584;SDS011;73873;40.084;32.908;2023-11-21T04:22:42;28.73;;;13.20;;
72584;SDS011;73873;40.084;32.908;2023-11-21T04:25:11;26.13;;;12.77;;
72584;SDS011;73873;40.084;32.908;2023-11-21T04:27:40;30.13;;;13.60;;
72584;SDS011;73873;40.084;32.908;2023-11-21T04:30:08;30.30;;;13.90;;
72584;SDS011;73873;40.084;32.908;2023-11-21T04:32:36;30.02;;;14.13;;
72584;SDS011;73873;40.084;32.908;2023-11-21T04:35:03;33.20;;;14.48;;
72584;SDS011;73873;40.084;32.908;2023-11-21T04:37:30;29.75;;;14.00;;
72584;SDS011;73873;40.084;32.908;2023-11-21T04:39:56;26.97;;;12.87;;
72584;SDS011;73873;40.084;32.908;2023-11-21T04:42:23;29.58;;;13.48;;
72584;SDS011;73873;40.084;32.908;2023-11-21T04:44:50;29.60;;;14.73;;
72584;SDS011;73873;40.084;32.908;2023-11-21T04:47:17;29.30;;;13.48;;
72584;SDS011;73873;40.084;32.908;2023-11-21T04:49:45;27.92;;;13.57;;
72584;SDS011;73873;40.084;32.908;2023-11-21T04:52:12;25.60;;;12.93;;
72584;SDS011;73873;40.084;32.908;2023-11-21T04:54:39;30.27;;;13.20;;
72584;SDS011;73873;40.084;32.908;2023-11-21T04:57:06;30.05;;;13.48;;
72584;SDS011;73873;40.084;32.908;2023-11-21T04:59:34;27.92;;;13.55;;
72584;SDS011;73873;40.084;32.908;2023-11-21T05:02:01;30.27;;;12.95;;
72584;SDS011;73873;40.084;32.908;2023-11-21T05:04:28;27.80;;;12.77;;
72584;SDS011;73873;40.084;32.908;2023-11-21T05:06:55;26.42;;;13.07;;
72584;SDS011;73873;40.084;32.908;2023-11-21T05:09:22;25.40;;;12.65;;
72584;SDS011;73873;40.084;32.908;2023-11-21T05:11:49;25.88;;;12.55;;
72584;SDS011;73873;40.084;32.908;2023-11-21T05:14:16;27.63;;;13.40;;
72584;SDS011;73873;40.084;32.908;2023-11-21T05:16:43;27.60;;;12.30;;
72584;SDS011;73873;40.084;32.908;2023-11-21T05:19:10;29.25;;;13.10;;
72584;SDS011;73873;40.084;32.908;2023-11-21T05:21:37;27.48;;;13.07;;
72584;SDS011;73873;40.084;32.908;2023-11-21T05:24:04;34.28;;;12.88;;
72584;SDS011;73873;40.084;32.908;2023-11-21T05:26:31;24.52;;;13.15;;
72584;SDS011;73873;40.084;32.908;2023-11-21T05:28:58;24.60;;;11.80;;
72584;SDS011;73873;40.084;32.908;2023-11-21T05:31:25;24.27;;;11.48;;
72584;SDS011;73873;40.084;32.908;2023-11-21T05:33:52;22.33;;;11.02;;
72584;SDS011;73873;40.084;32.908;2023-11-21T05:36:19;24.83;;;11.38;;
72584;SDS011;73873;40.084;32.908;2023-11-21T05:38:46;25.02;;;11.40;;
72584;SDS011;73873;40.084;32.908;2023-11-21T05:41:12;24.67;;;12.00;;
72584;SDS011;73873;40.084;32.908;2023-11-21T05:43:39;26.13;;;11.82;;
72584;SDS011;73873;40.084;32.908;2023-11-21T05:46:06;26.05;;;12.75;;
72584;SDS011;73873;40.084;32.908;2023-11-21T05:48:33;26.75;;;13.02;;
72584;SDS011;73873;40.084;32.908;2023-11-21T05:51:00;24.83;;;12.65;;
72584;SDS011;73873;40.084;32.908;2023-11-21T05:53:27;27.80;;;12.60;;
72584;SDS011;73873;40.084;32.908;2023-11-21T05:55:54;28.10;;;13.40;;
72584;SDS011;73873;40.084;32.908;2023-11-21T05:58:22;27.95;;;13.00;;
72584;SDS011;73873;40.084;32.908;2023-11-21T06:00:49;25.85;;;12.85;;
72584;SDS011;73873;40.084;32.908;2023-11-21T06:03:16;28.17;;;13.85;;
72584;SDS011;73873;40.084;32.908;2023-11-21T06:05:43;27.23;;;12.60;;
72584;SDS011;73873;40.084;32.908;2023-11-21T06:08:10;25.08;;;12.25;;
72584;SDS011;73873;40.084;32.908;2023-11-21T06:10:37;23.33;;;11.48;;
72584;SDS011;73873;40.084;32.908;2023-11-21T06:13:04;24.55;;;10.63;;
72584;SDS011;73873;40.084;32.908;2023-11-21T06:15:31;21.13;;;10.70;;
72584;SDS011;73873;40.084;32.908;2023-11-21T06:17:58;23.43;;;10.63;;
72584;SDS011;73873;40.084;32.908;2023-11-21T06:20:25;21.40;;;10.23;;
72584;SDS011;73873;40.084;32.908;2023-11-21T06:22:52;21.70;;;10.55;;
72584;SDS011;73873;40.084;32.908;2023-11-21T06:25:19;20.92;;;10.82;;
72584;SDS011;73873;40.084;32.908;2023-11-21T06:27:46;24.08;;;11.68;;
72584;SDS011;73873;40.084;32.908;2023-11-21T06:30:14;23.90;;;11.90;;
72584;SDS011;73873;40.084;32.908;2023-11-21T06:32:42;32.17;;;14.07;;
72584;SDS011;73873;40.084;32.908;2023-11-21T06:35:09;33.50;;;16.13;;
72584;SDS011;73873;40.084;32.908;2023-11-21T06:37:37;30.95;;;14.88;;
72584;SDS011;73873;40.084;32.908;2023-11-21T06:40:04;24.40;;;12.20;;
72584;SDS011;73873;40.084;32.908;2023-11-21T06:42:32;24.37;;;11.47;;
72584;SDS011;73873;40.084;32.908;2023-11-21T06:44:59;23.52;;;11.40;;
72584;SDS011;73873;40.084;32.908;2023-11-21T06:47:26;28.42;;;12.88;;
72584;SDS011;73873;40.084;32.908;2023-11-21T06:49:53;24.50;;;13.43;;
72584;SDS011;73873;40.084;32.908;2023-11-21T06:52:21;24.90;;;13.10;;
72584;SDS011;73873;40.084;32.908;2023-11-21T06:54:48;29.63;;;11.87;;
72584;SDS011;73873;40.084;32.908;2023-11-21T06:57:15;25.23;;;12.27;;
72584;SDS011;73873;40.084;32.908;2023-11-21T06:59:42;23.15;;;11.27;;
72584;SDS011;73873;40.084;32.908;2023-11-21T07:02:09;21.52;;;10.55;;
72584;SDS011;73873;40.084;32.908;2023-11-21T07:04:36;20.90;;;10.32;;
72584;SDS011;73873;40.084;32.908;2023-11-21T07:07:04;21.87;;;10.13;;
72584;SDS011;73873;40.084;32.908;2023-11-21T07:09:31;20.50;;;10.40;;
72584;SDS011;73873;40.084;32.908;2023-11-21T07:11:58;21.30;;;11.25;;
72584;SDS011;73873;40.084;32.908;2023-11-21T07:14:25;22.98;;;11.02;;
72584;SDS011;73873;40.084;32.908;2023-11-21T07:16:52;19.67;;;9.65;;
72584;SDS011;73873;40.084;32.908;2023-11-21T07:19:20;18.70;;;9.50;;
72584;SDS011;73873;40.084;32.908;2023-11-21T07:21:47;18.75;;;8.80;;
72584;SDS011;73873;40.084;32.908;2023-11-21T07:24:13;21.70;;;9.77;;
72584;SDS011;73873;40.084;32.908;2023-11-21T07:26:40;16.85;;;7.70;;
72584;SDS011;73873;40.084;32.908;2023-11-21T07:29:08;16.80;;;8.80;;
72584;SDS011;73873;40.084;32.908;2023-11-21T07:31:35;19.80;;;9.07;;
72584;SDS011;73873;40.084;32.908;2023-11-21T07:34:02;29.45;;;15.05;;
72584;SDS011;73873;40.084;32.908;2023-11-21T07:36:29;36.22;;;17.27;;
72584;SDS011;73873;40.084;32.908;2023-11-21T07:38:56;39.38;;;20.15;;
72584;SDS011;73873;40.084;32.908;2023-11-21T07:41:23;43.35;;;21.05;;
72584;SDS011;73873;40.084;32.908;2023-11-21T07:43:56;44.97;;;22.03;;
72584;SDS011;73873;40.084;32.908;2023-11-21T07:46:25;43.60;;;21.33;;
72584;SDS011;73873;40.084;32.908;2023-11-21T07:48:53;35.67;;;18.58;;
72584;SDS011;73873;40.084;32.908;2023-11-21T07:51:20;34.38;;;17.98;;
72584;SDS011;73873;40.084;32.908;2023-11-21T07:53:47;35.17;;;18.33;;
72584;SDS011;73873;40.084;32.908;2023-11-21T07:56:14;35.27;;;18.73;;
72584;SDS011;73873;40.084;32.908;2023-11-21T07:58:41;37.28;;;19.05;;
72584;SDS011;73873;40.084;32.908;2023-11-21T08:01:07;38.38;;;19.70;;
72584;SDS011;73873;40.084;32.908;2023-11-21T08:03:35;38.10;;;18.45;;
72584;SDS011;73873;40.084;32.908;2023-11-21T08:06:02;31.23;;;16.77;;
72584;SDS011;73873;40.084;32.908;2023-11-21T08:08:29;31.53;;;16.30;;
72584;SDS011;73873;40.084;32.908;2023-11-21T08:10:56;37.08;;;16.92;;
72584;SDS011;73873;40.084;32.908;2023-11-21T08:13:23;35.10;;;17.33;;
72584;SDS011;73873;40.084;32.908;2023-11-21T08:15:50;29.70;;;14.73;;
72584;SDS011;73873;40.084;32.908;2023-11-21T08:18:20;31.80;;;15.13;;
72584;SDS011;73873;40.084;32.908;2023-11-21T08:20:48;32.00;;;16.63;;
72584;SDS011;73873;40.084;32.908;2023-11-21T08:23:15;32.92;;;16.55;;
72584;SDS011;73873;40.084;32.908;2023-11-21T08:25:45;31.60;;;16.77;;
72584;SDS011;73873;40.084;32.908;2023-11-21T08:28:12;40.75;;;18.23;;
72584;SDS011;73873;40.084;32.908;2023-11-21T08:30:39;35.40;;;17.30;;
72584;SDS011;73873;40.084;32.908;2023-11-21T08:33:06;34.00;;;17.20;;
72584;SDS011;73873;40.084;32.908;2023-11-21T08:35:34;33.22;;;17.15;;
72584;SDS011;73873;40.084;32.908;2023-11-21T08:38:02;29.90;;;16.17;;
72584;SDS011;73873;40.084;32.908;2023-11-21T08:40:29;35.05;;;16.08;;
72584;SDS011;73873;40.084;32.908;2023-11-21T08:42:56;32.97;;;15.80;;
72584;SDS011;73873;40.084;32.908;2023-11-21T08:45:24;33.73;;;15.80;;
72584;SDS011;73873;40.084;32.908;2023-11-21T08:47:52;29.52;;;15.27;;
72584;SDS011;73873;40.084;32.908;2023-11-21T08:50:19;32.58;;;16.17;;
72584;SDS011;73873;40.084;32.908;2023-11-21T08:52:46;25.88;;;13.52;;
72584;SDS011;73873;40.084;32.908;2023-11-21T08:55:14;26.23;;;14.48;;
72584;SDS011;73873;40.084;32.908;2023-11-21T08:57:43;28.50;;;14.27;;
72584;SDS011;73873;40.084;32.908;2023-11-21T09:00:10;27.23;;;13.75;;
72584;SDS011;73873;40.084;32.908;2023-11-21T09:02:38;23.33;;;12.13;;
72584;SDS011;73873;40.084;32.908;2023-11-21T09:05:05;17.45;;;9.40;;
72584;SDS011;73873;40.084;32.908;2023-11-21T09:07:32;17.55;;;9.68;;
72584;SDS011;73873;40.084;32.908;2023-11-21T09:09:59;17.77;;;8.50;;
72584;SDS011;73873;40.084;32.908;2023-11-21T09:12:26;14.93;;;8.43;;
72584;SDS011;73873;40.084;32.908;2023-11-21T09:14:53;16.77;;;8.20;;
72584;SDS011;73873;40.084;32.908;2023-11-21T09:17:20;21.17;;;11.55;;
72584;SDS011;73873;40.084;32.908;2023-11-21T09:19:47;24.27;;;12.60;;
72584;SDS011;73873;40.084;32.908;2023-11-21T09:22:14;23.00;;;12.20;;
72584;SDS011;73873;40.084;32.908;2023-11-21T09:24:41;17.08;;;9.38;;
72584;SDS011;73873;40.084;32.908;2023-11-21T09:27:09;15.82;;;8.38;;
72584;SDS011;73873;40.084;32.908;2023-11-21T09:29:36;15.70;;;8.90;;
72584;SDS011;73873;40.084;32.908;2023-11-21T09:32:03;19.33;;;10.15;;
72584;SDS011;73873;40.084;32.908;2023-11-21T09:34:30;18.40;;;9.57;;
72584;SDS011;73873;40.084;32.908;2023-11-21T09:36:57;15.98;;;9.23;;
72584;SDS011;73873;40.084;32.908;2023-11-21T09:39:24;19.83;;;11.25;;
72584;SDS011;73873;40.084;32.908;2023-11-21T09:41:52;20.08;;;11.63;;
72584;SDS011;73873;40.084;32.908;2023-11-21T09:44:29;20.20;;;10.73;;
72584;SDS011;73873;40.084;32.908;2023-11-21T09:47:01;19.67;;;11.00;;
72584;SDS011;73873;40.084;32.908;2023-11-21T09:49:29;15.57;;;8.02;;
72584;SDS011;73873;40.084;32.908;2023-11-21T09:52:00;13.45;;;8.65;;
72584;SDS011;73873;40.084;32.908;2023-11-21T09:54:28;19.35;;;10.52;;
72584;SDS011;73873;40.084;32.908;2023-11-21T09:56:55;18.95;;;10.88;;
72584;SDS011;73873;40.084;32.908;2023-11-21T09:59:22;19.10;;;10.17;;
72584;SDS011;73873;40.084;32.908;2023-11-21T10:01:49;16.90;;;10.18;;
72584;SDS011;73873;40.084;32.908;2023-11-21T10:04:16;14.88;;;8.88;;
72584;SDS011;73873;40.084;32.908;2023-11-21T10:06:43;13.73;;;7.65;;
72584;SDS011;73873;40.084;32.908;2023-11-21T10:09:12;12.15;;;7.30;;
72584;SDS011;73873;40.084;32.908;2023-11-21T10:11:43;11.27;;;6.77;;
72584;SDS011;73873;40.084;32.908;2023-11-21T10:14:11;12.32;;;6.60;;
72584;SDS011;73873;40.084;32.908;2023-11-21T10:16:38;11.57;;;6.80;;
72584;SDS011;73873;40.084;32.908;2023-11-21T10:19:05;13.93;;;6.97;;
72584;SDS011;73873;40.084;32.908;2023-11-21T10:21:33;11.60;;;6.70;;
72584;SDS011;73873;40.084;32.908;2023-11-21T10:24:00;10.57;;;6.30;;
72584;SDS011;73873;40.084;32.908;2023-11-21T10:26:28;9.50;;;6.35;;
72584;SDS011;73873;40.084;32.908;2023-11-21T10:28:57;11.40;;;6.72;;
72584;SDS011;73873;40.084;32.908;2023-11-21T10:31:34;13.70;;;6.90;;
72584;SDS011;73873;40.084;32.908;2023-11-21T10:34:17;11.68;;;7.03;;
72584;SDS011;73873;40.084;32.908;2023-11-21T10:36:45;15.40;;;8.40;;
72584;SDS011;73873;40.084;32.908;2023-11-21T10:39:21;10.27;;;6.63;;
72584;SDS011;73873;40.084;32.908;2023-11-21T10:41:49;9.88;;;5.57;;
72584;SDS011;73873;40.084;32.908;2023-11-21T10:44:17;8.20;;;4.63;;
72584;SDS011;73873;40.084;32.908;2023-11-21T10:46:44;8.35;;;5.07;;
72584;SDS011;73873;40.084;32.908;2023-11-21T10:49:11;7.20;;;4.53;;
72584;SDS011;73873;40.084;32.908;2023-11-21T10:51:38;8.63;;;5.50;;
72584;SDS011;73873;40.084;32.908;2023-11-21T10:54:10;10.02;;;5.47;;
72584;SDS011;73873;40.084;32.908;2023-11-21T10:56:37;9.95;;;5.38;;
72584;SDS011;73873;40.084;32.908;2023-11-21T10:59:12;8.52;;;5.03;;
72584;SDS011;73873;40.084;32.908;2023-11-21T11:01:44;7.93;;;4.67;;
72584;SDS011;73873;40.084;32.908;2023-11-21T11:04:12;8.55;;;5.10;;
72584;SDS011;73873;40.084;32.908;2023-11-21T11:06:42;8.63;;;5.40;;
72584;SDS011;73873;40.084;32.908;2023-11-21T11:09:13;9.48;;;4.60;;
72584;SDS011;73873;40.084;32.908;2023-11-21T11:11:40;8.75;;;4.90;;
72584;SDS011;73873;40.084;32.908;2023-11-21T11:14:09;9.50;;;4.70;;
72584;SDS011;73873;40.084;32.908;2023-11-21T11:16:38;9.23;;;4.57;;
72584;SDS011;73873;40.084;32.908;2023-11-21T11:19:09;7.43;;;4.70;;
72584;SDS011;73873;40.084;32.908;2023-11-21T11:21:41;8.13;;;4.40;;
72584;SDS011;73873;40.084;32.908;2023-11-21T11:26:42;7.80;;;4.70;;
72584;SDS011;73873;40.084;32.908;2023-11-21T11:29:21;12.98;;;5.60;;
72584;SDS011;73873;40.084;32.908;2023-11-21T11:37:24;12.52;;;6.00;;
72584;SDS011;73873;40.084;32.908;2023-11-21T11:39:51;13.27;;;6.90;;
72584;SDS011;73873;40.084;32.908;2023-11-21T11:42:18;11.82;;;6.60;;
72584;SDS011;73873;40.084;32.908;2023-11-21T11:47:14;10.13;;;5.15;;
72584;SDS011;73873;40.084;32.908;2023-11-21T11:52:38;8.67;;;5.10;;
72584;SDS011;73873;40.084;32.908;2023-11-21T11:55:09;8.25;;;4.57;;
72584;SDS011;73873;40.084;32.908;2023-11-21T11:57:38;8.68;;;4.50;;
72584;SDS011;73873;40.084;32.908;2023-11-21T12:00:14;8.30;;;4.60;;
72584;SDS011;73873;40.084;32.908;2023-11-21T12:02:45;8.45;;;4.07;;
72584;SDS011;73873;40.084;32.908;2023-11-21T12:05:13;7.07;;;3.90;;
72584;SDS011;73873;40.084;32.908;2023-11-21T12:07:54;7.80;;;4.97;;
72584;SDS011;73873;40.084;32.908;2023-11-21T12:10:24;8.55;;;4.93;;
72584;SDS011;73873;40.084;32.908;2023-11-21T12:12:53;8.15;;;4.95;;
72584;SDS011;73873;40.084;32.908;2023-11-21T12:15:23;9.30;;;5.70;;
72584;SDS011;73873;40.084;32.908;2023-11-21T12:17:51;9.33;;;5.40;;
72584;SDS011;73873;40.084;32.908;2023-11-21T12:20:20;10.18;;;5.40;;
72584;SDS011;73873;40.084;32.908;2023-11-21T12:22:50;8.38;;;5.47;;
72584;SDS011;73873;40.084;32.908;2023-11-21T12:25:21;8.68;;;4.90;;
72584;SDS011;73873;40.084;32.908;2023-11-21T12:27:50;8.20;;;5.43;;
72584;SDS011;73873;40.084;32.908;2023-11-21T12:30:22;8.27;;;4.33;;
72584;SDS011;73873;40.084;32.908;2023-11-21T12:32:51;9.90;;;5.82;;
72584;SDS011;73873;40.084;32.908;2023-11-21T12:35:21;9.35;;;6.03;;
72584;SDS011;73873;40.084;32.908;2023-11-21T12:37:51;10.38;;;6.78;;
72584;SDS011;73873;40.084;32.908;2023-11-21T12:40:18;12.90;;;7.20;;
72584;SDS011;73873;40.084;32.908;2023-11-21T12:42:46;11.27;;;7.40;;
72584;SDS011;73873;40.084;32.908;2023-11-21T12:45:18;12.63;;;6.97;;
72584;SDS011;73873;40.084;32.908;2023-11-21T12:47:47;10.40;;;6.88;;
72584;SDS011;73873;40.084;32.908;2023-11-21T12:50:15;9.75;;;6.25;;
72584;SDS011;73873;40.084;32.908;2023-11-21T12:52:45;11.20;;;6.53;;
72584;SDS011;73873;40.084;32.908;2023-11-21T12:55:22;10.80;;;6.60;;
72584;SDS011;73873;40.084;32.908;2023-11-21T12:57:50;9.63;;;5.50;;
72584;SDS011;73873;40.084;32.908;2023-11-21T13:00:44;10.85;;;5.80;;
72584;SDS011;73873;40.084;32.908;2023-11-21T13:03:13;10.52;;;6.20;;
72584;SDS011;73873;40.084;32.908;2023-11-21T13:05:43;8.15;;;5.20;;
72584;SDS011;73873;40.084;32.908;2023-11-21T13:08:13;7.90;;;5.00;;
72584;SDS011;73873;40.084;32.908;2023-11-21T13:10:42;7.55;;;5.07;;
72584;SDS011;73873;40.084;32.908;2023-11-21T13:13:11;9.35;;;5.45;;
72584;SDS011;73873;40.084;32.908;2023-11-21T13:15:39;8.90;;;5.10;;
72584;SDS011;73873;40.084;32.908;2023-11-21T13:18:07;8.75;;;5.70;;
72584;SDS011;73873;40.084;32.908;2023-11-21T13:20:34;8.93;;;6.00;;
72584;SDS011;73873;40.084;32.908;2023-11-21T13:23:06;10.15;;;5.97;;
72584;SDS011;73873;40.084;32.908;2023-11-21T13:25:34;10.15;;;6.47;;
72584;SDS011;73873;40.084;32.908;2023-11-21T13:28:01;11.07;;;6.82;;
72584;SDS011;73873;40.084;32.908;2023-11-21T13:30:28;10.52;;;6.90;;
72584;SDS011;73873;40.084;32.908;2023-11-21T13:32:56;10.70;;;6.37;;
72584;SDS011;73873;40.084;32.908;2023-11-21T13:35:23;11.02;;;7.05;;
72584;SDS011;73873;40.084;32.908;2023-11-21T13:37:50;13.00;;;7.35;;
72584;SDS011;73873;40.084;32.908;2023-11-21T13:40:22;11.82;;;7.10;;
72584;SDS011;73873;40.084;32.908;2023-11-21T13:42:49;9.65;;;6.65;;
72584;SDS011;73873;40.084;32.908;2023-11-21T13:45:16;14.87;;;6.90;;
72584;SDS011;73873;40.084;32.908;2023-11-21T13:47:43;13.85;;;7.35;;
72584;SDS011;73873;40.084;32.908;2023-11-21T13:50:10;15.38;;;7.78;;
72584;SDS011;73873;40.084;32.908;2023-11-21T13:52:37;10.85;;;6.82;;
72584;SDS011;73873;40.084;32.908;2023-11-21T13:55:04;18.70;;;8.00;;
72584;SDS011;73873;40.084;32.908;2023-11-21T13:57:31;9.60;;;5.83;;
72584;SDS011;73873;40.084;32.908;2023-11-21T13:59:58;12.23;;;5.78;;
72584;SDS011;73873;40.084;32.908;2023-11-21T14:02:25;11.02;;;5.75;;
72584;SDS011;73873;40.084;32.908;2023-11-21T14:04:52;14.35;;;6.35;;
72584;SDS011;73873;40.084;32.908;2023-11-21T14:07:20;10.00;;;5.70;;
72584;SDS011;73873;40.084;32.908;2023-11-21T14:09:47;11.63;;;6.00;;
72584;SDS011;73873;40.084;32.908;2023-11-21T14:12:14;9.82;;;5.93;;
72584;SDS011;73873;40.084;32.908;2023-11-21T14:14:41;9.48;;;5.25;;
72584;SDS011;73873;40.084;32.908;2023-11-21T14:17:08;9.38;;;5.40;;
72584;SDS011;73873;40.084;32.908;2023-11-21T14:19:35;11.55;;;5.55;;
72584;SDS011;73873;40.084;32.908;2023-11-21T14:22:02;10.57;;;4.97;;
72584;SDS011;73873;40.084;32.908;2023-11-21T14:24:29;8.18;;;5.40;;
72584;SDS011;73873;40.084;32.908;2023-11-21T14:26:56;9.20;;;5.30;;
72584;SDS011;73873;40.084;32.908;2023-11-21T14:29:23;8.05;;;4.85;;
72584;SDS011;73873;40.084;32.908;2023-11-21T14:31:50;9.05;;;5.53;;
72584;SDS011;73873;40.084;32.908;2023-11-21T14:34:21;9.60;;;4.80;;